sensor_id;sensor_type;location;lat;lon;timestamp;P1;durP1;ratioP1;P2;durP2;ratioP2
52057;SDS011;38063;53.210;6.504;2023-10-31T00:00:25;5.20;;;1.80;;
52057;SDS011;38063;53.210;6.504;2023-10-31T00:02:51;4.25;;;1.63;;
52057;SDS011;38063;53.210;6.504;2023-10-31T00:05:17;5.90;;;1.85;;
52057;SDS011;38063;53.210;6.504;2023-10-31T00:07:42;5.85;;;1.70;;
52057;SDS011;38063;53.210;6.504;2023-10-31T00:10:08;4.95;;;1.25;;
52057;SDS011;38063;53.210;6.504;2023-10-31T00:12:34;4.38;;;1.42;;
52057;SDS011;38063;53.210;6.504;2023-10-31T00:14:59;2.65;;;1.50;;
52057;SDS011;38063;53.210;6.504;2023-10-31T00:17:25;5.47;;;1.58;;
52057;SDS011;38063;53.210;6.504;2023-10-31T00:19:51;4.00;;;2.00;;
52057;SDS011;38063;53.210;6.504;2023-10-31T00:22:16;8.75;;;1.77;;
52057;SDS011;38063;53.210;6.504;2023-10-31T00:24:42;5.10;;;1.52;;
52057;SDS011;38063;53.210;6.504;2023-10-31T00:27:08;3.05;;;1.60;;
52057;SDS011;38063;53.210;6.504;2023-10-31T00:29:35;3.60;;;1.45;;
52057;SDS011;38063;53.210;6.504;2023-10-31T00:32:01;3.45;;;1.58;;
52057;SDS011;38063;53.210;6.504;2023-10-31T00:34:26;10.40;;;2.40;;
52057;SDS011;38063;53.210;6.504;2023-10-31T00:36:52;2.22;;;1.50;;
52057;SDS011;38063;53.210;6.504;2023-10-31T00:39:17;7.97;;;1.90;;
52057;SDS011;38063;53.210;6.504;2023-10-31T00:41:44;5.72;;;1.90;;
52057;SDS011;38063;53.210;6.504;2023-10-31T00:44:10;5.82;;;2.08;;
52057;SDS011;38063;53.210;6.504;2023-10-31T00:46:36;6.82;;;2.15;;
52057;SDS011;38063;53.210;6.504;2023-10-31T00:49:02;8.00;;;2.05;;
52057;SDS011;38063;53.210;6.504;2023-10-31T00:51:28;3.80;;;1.85;;
52057;SDS011;38063;53.210;6.504;2023-10-31T00:53:54;8.10;;;1.98;;
52057;SDS011;38063;53.210;6.504;2023-10-31T00:56:19;5.03;;;1.50;;
52057;SDS011;38063;53.210;6.504;2023-10-31T00:58:45;5.68;;;1.50;;
52057;SDS011;38063;53.210;6.504;2023-10-31T01:01:11;8.93;;;2.05;;
52057;SDS011;38063;53.210;6.504;2023-10-31T01:03:36;3.95;;;1.75;;
52057;SDS011;38063;53.210;6.504;2023-10-31T01:06:02;4.18;;;2.10;;
52057;SDS011;38063;53.210;6.504;2023-10-31T01:08:28;4.15;;;2.42;;
52057;SDS011;38063;53.210;6.504;2023-10-31T01:10:55;5.28;;;2.67;;
52057;SDS011;38063;53.210;6.504;2023-10-31T01:13:20;10.20;;;2.60;;
52057;SDS011;38063;53.210;6.504;2023-10-31T01:15:46;21.20;;;10.88;;
52057;SDS011;38063;53.210;6.504;2023-10-31T01:18:12;14.35;;;7.68;;
52057;SDS011;38063;53.210;6.504;2023-10-31T01:20:38;20.52;;;11.48;;
52057;SDS011;38063;53.210;6.504;2023-10-31T01:23:04;26.85;;;12.45;;
52057;SDS011;38063;53.210;6.504;2023-10-31T01:25:29;20.90;;;9.68;;
52057;SDS011;38063;53.210;6.504;2023-10-31T01:27:55;13.57;;;3.90;;
52057;SDS011;38063;53.210;6.504;2023-10-31T01:30:21;7.68;;;2.83;;
52057;SDS011;38063;53.210;6.504;2023-10-31T01:32:46;7.32;;;3.15;;
52057;SDS011;38063;53.210;6.504;2023-10-31T01:35:12;11.43;;;2.70;;
52057;SDS011;38063;53.210;6.504;2023-10-31T01:37:38;33.08;;;19.00;;
52057;SDS011;38063;53.210;6.504;2023-10-31T01:40:04;26.63;;;14.82;;
52057;SDS011;38063;53.210;6.504;2023-10-31T01:42:32;20.73;;;12.63;;
52057;SDS011;38063;53.210;6.504;2023-10-31T01:44:58;20.17;;;10.45;;
52057;SDS011;38063;53.210;6.504;2023-10-31T01:47:23;28.35;;;14.68;;
52057;SDS011;38063;53.210;6.504;2023-10-31T01:49:49;23.08;;;11.13;;
52057;SDS011;38063;53.210;6.504;2023-10-31T01:52:17;13.15;;;4.32;;
52057;SDS011;38063;53.210;6.504;2023-10-31T01:54:43;14.93;;;7.90;;
52057;SDS011;38063;53.210;6.504;2023-10-31T01:57:10;26.98;;;14.73;;
52057;SDS011;38063;53.210;6.504;2023-10-31T01:59:36;30.58;;;18.52;;
52057;SDS011;38063;53.210;6.504;2023-10-31T02:02:02;23.58;;;14.10;;
52057;SDS011;38063;53.210;6.504;2023-10-31T02:04:28;32.42;;;17.75;;
52057;SDS011;38063;53.210;6.504;2023-10-31T02:06:54;24.77;;;15.32;;
52057;SDS011;38063;53.210;6.504;2023-10-31T02:09:20;16.42;;;7.35;;
52057;SDS011;38063;53.210;6.504;2023-10-31T02:11:49;18.92;;;10.32;;
52057;SDS011;38063;53.210;6.504;2023-10-31T02:14:15;21.60;;;11.35;;
52057;SDS011;38063;53.210;6.504;2023-10-31T02:16:41;26.40;;;12.63;;
52057;SDS011;38063;53.210;6.504;2023-10-31T02:19:06;17.77;;;10.13;;
52057;SDS011;38063;53.210;6.504;2023-10-31T02:21:32;15.40;;;6.82;;
52057;SDS011;38063;53.210;6.504;2023-10-31T02:23:59;21.13;;;13.75;;
52057;SDS011;38063;53.210;6.504;2023-10-31T02:26:29;13.75;;;6.10;;
52057;SDS011;38063;53.210;6.504;2023-10-31T02:28:56;9.90;;;3.42;;
52057;SDS011;38063;53.210;6.504;2023-10-31T02:31:21;7.22;;;1.40;;
52057;SDS011;38063;53.210;6.504;2023-10-31T02:33:47;4.85;;;1.30;;
52057;SDS011;38063;53.210;6.504;2023-10-31T02:36:13;6.65;;;1.20;;
52057;SDS011;38063;53.210;6.504;2023-10-31T02:38:39;3.80;;;1.50;;
52057;SDS011;38063;53.210;6.504;2023-10-31T02:41:04;5.97;;;1.70;;
52057;SDS011;38063;53.210;6.504;2023-10-31T02:43:30;7.40;;;1.80;;
52057;SDS011;38063;53.210;6.504;2023-10-31T02:45:56;5.10;;;1.80;;
52057;SDS011;38063;53.210;6.504;2023-10-31T02:48:22;6.70;;;1.95;;
52057;SDS011;38063;53.210;6.504;2023-10-31T02:50:49;7.63;;;2.30;;
52057;SDS011;38063;53.210;6.504;2023-10-31T02:53:15;6.07;;;2.72;;
52057;SDS011;38063;53.210;6.504;2023-10-31T02:55:43;6.38;;;2.10;;
52057;SDS011;38063;53.210;6.504;2023-10-31T02:58:08;10.05;;;2.85;;
52057;SDS011;38063;53.210;6.504;2023-10-31T03:00:34;10.30;;;2.85;;
52057;SDS011;38063;53.210;6.504;2023-10-31T03:02:59;6.53;;;2.47;;
52057;SDS011;38063;53.210;6.504;2023-10-31T03:05:25;7.03;;;3.00;;
52057;SDS011;38063;53.210;6.504;2023-10-31T03:07:51;8.48;;;2.42;;
52057;SDS011;38063;53.210;6.504;2023-10-31T03:10:17;6.65;;;2.90;;
52057;SDS011;38063;53.210;6.504;2023-10-31T03:12:44;6.75;;;2.85;;
52057;SDS011;38063;53.210;6.504;2023-10-31T03:15:10;10.35;;;3.08;;
52057;SDS011;38063;53.210;6.504;2023-10-31T03:17:36;8.98;;;2.88;;
52057;SDS011;38063;53.210;6.504;2023-10-31T03:20:02;8.02;;;3.13;;
52057;SDS011;38063;53.210;6.504;2023-10-31T03:22:28;9.23;;;2.97;;
52057;SDS011;38063;53.210;6.504;2023-10-31T03:24:54;7.95;;;2.97;;
52057;SDS011;38063;53.210;6.504;2023-10-31T03:27:19;7.03;;;3.65;;
52057;SDS011;38063;53.210;6.504;2023-10-31T03:29:45;8.75;;;3.72;;
52057;SDS011;38063;53.210;6.504;2023-10-31T03:32:11;7.07;;;3.42;;
52057;SDS011;38063;53.210;6.504;2023-10-31T03:34:37;6.47;;;3.50;;
52057;SDS011;38063;53.210;6.504;2023-10-31T03:37:03;10.30;;;3.80;;
52057;SDS011;38063;53.210;6.504;2023-10-31T03:39:29;11.27;;;4.30;;
52057;SDS011;38063;53.210;6.504;2023-10-31T03:41:55;9.13;;;3.80;;
52057;SDS011;38063;53.210;6.504;2023-10-31T03:44:21;10.85;;;4.28;;
52057;SDS011;38063;53.210;6.504;2023-10-31T03:46:46;8.20;;;3.92;;
52057;SDS011;38063;53.210;6.504;2023-10-31T03:49:12;8.13;;;3.47;;
52057;SDS011;38063;53.210;6.504;2023-10-31T03:51:37;7.60;;;4.07;;
52057;SDS011;38063;53.210;6.504;2023-10-31T03:54:03;8.02;;;3.58;;
52057;SDS011;38063;53.210;6.504;2023-10-31T03:56:29;8.60;;;3.58;;
52057;SDS011;38063;53.210;6.504;2023-10-31T03:58:54;10.68;;;3.55;;
52057;SDS011;38063;53.210;6.504;2023-10-31T04:01:20;5.38;;;3.42;;
52057;SDS011;38063;53.210;6.504;2023-10-31T04:03:46;6.25;;;3.03;;
52057;SDS011;38063;53.210;6.504;2023-10-31T04:06:12;10.07;;;3.53;;
52057;SDS011;38063;53.210;6.504;2023-10-31T04:08:37;12.38;;;3.03;;
52057;SDS011;38063;53.210;6.504;2023-10-31T04:11:03;12.55;;;3.90;;
52057;SDS011;38063;53.210;6.504;2023-10-31T04:13:29;8.00;;;3.42;;
52057;SDS011;38063;53.210;6.504;2023-10-31T04:15:54;10.23;;;3.25;;
52057;SDS011;38063;53.210;6.504;2023-10-31T04:18:20;8.32;;;3.30;;
52057;SDS011;38063;53.210;6.504;2023-10-31T04:20:45;9.52;;;3.25;;
52057;SDS011;38063;53.210;6.504;2023-10-31T04:23:11;10.75;;;3.25;;
52057;SDS011;38063;53.210;6.504;2023-10-31T04:25:37;8.45;;;3.05;;
52057;SDS011;38063;53.210;6.504;2023-10-31T04:28:03;7.65;;;2.97;;
52057;SDS011;38063;53.210;6.504;2023-10-31T04:30:29;7.90;;;2.67;;
52057;SDS011;38063;53.210;6.504;2023-10-31T04:32:54;7.57;;;2.78;;
52057;SDS011;38063;53.210;6.504;2023-10-31T04:35:20;7.28;;;2.67;;
52057;SDS011;38063;53.210;6.504;2023-10-31T04:37:46;10.80;;;3.10;;
52057;SDS011;38063;53.210;6.504;2023-10-31T04:40:12;8.18;;;2.45;;
52057;SDS011;38063;53.210;6.504;2023-10-31T04:42:40;10.82;;;2.97;;
52057;SDS011;38063;53.210;6.504;2023-10-31T04:45:06;9.15;;;2.88;;
52057;SDS011;38063;53.210;6.504;2023-10-31T04:47:33;6.57;;;2.88;;
52057;SDS011;38063;53.210;6.504;2023-10-31T04:49:58;6.50;;;3.55;;
52057;SDS011;38063;53.210;6.504;2023-10-31T04:52:24;8.38;;;2.90;;
52057;SDS011;38063;53.210;6.504;2023-10-31T04:54:51;8.85;;;2.72;;
52057;SDS011;38063;53.210;6.504;2023-10-31T04:57:17;5.60;;;2.70;;
52057;SDS011;38063;53.210;6.504;2023-10-31T04:59:43;6.90;;;2.42;;
52057;SDS011;38063;53.210;6.504;2023-10-31T05:02:08;4.88;;;1.77;;
52057;SDS011;38063;53.210;6.504;2023-10-31T05:04:37;10.13;;;2.25;;
52057;SDS011;38063;53.210;6.504;2023-10-31T05:07:04;6.70;;;2.00;;
52057;SDS011;38063;53.210;6.504;2023-10-31T05:09:30;4.90;;;1.70;;
52057;SDS011;38063;53.210;6.504;2023-10-31T05:11:56;7.70;;;1.70;;
52057;SDS011;38063;53.210;6.504;2023-10-31T05:14:21;5.90;;;1.92;;
52057;SDS011;38063;53.210;6.504;2023-10-31T05:16:47;5.10;;;1.67;;
52057;SDS011;38063;53.210;6.504;2023-10-31T05:19:12;6.05;;;1.50;;
52057;SDS011;38063;53.210;6.504;2023-10-31T05:21:38;4.57;;;1.60;;
52057;SDS011;38063;53.210;6.504;2023-10-31T05:24:04;5.70;;;1.40;;
52057;SDS011;38063;53.210;6.504;2023-10-31T05:26:30;1.63;;;0.98;;
52057;SDS011;38063;53.210;6.504;2023-10-31T05:28:56;3.65;;;1.00;;
52057;SDS011;38063;53.210;6.504;2023-10-31T05:31:22;3.35;;;0.88;;
52057;SDS011;38063;53.210;6.504;2023-10-31T05:33:49;3.80;;;0.82;;
52057;SDS011;38063;53.210;6.504;2023-10-31T05:36:19;2.05;;;1.35;;
52057;SDS011;38063;53.210;6.504;2023-10-31T05:38:46;4.88;;;1.10;;
52057;SDS011;38063;53.210;6.504;2023-10-31T05:41:12;4.93;;;1.48;;
52057;SDS011;38063;53.210;6.504;2023-10-31T05:43:38;5.93;;;1.52;;
52057;SDS011;38063;53.210;6.504;2023-10-31T05:46:03;3.10;;;1.23;;
52057;SDS011;38063;53.210;6.504;2023-10-31T05:48:30;3.05;;;1.13;;
52057;SDS011;38063;53.210;6.504;2023-10-31T05:50:56;4.88;;;1.30;;
52057;SDS011;38063;53.210;6.504;2023-10-31T05:53:22;4.93;;;1.08;;
52057;SDS011;38063;53.210;6.504;2023-10-31T05:55:47;2.30;;;1.30;;
52057;SDS011;38063;53.210;6.504;2023-10-31T05:58:13;5.15;;;1.48;;
52057;SDS011;38063;53.210;6.504;2023-10-31T06:00:39;3.97;;;1.27;;
52057;SDS011;38063;53.210;6.504;2023-10-31T06:03:04;1.58;;;0.80;;
52057;SDS011;38063;53.210;6.504;2023-10-31T06:05:30;2.38;;;1.55;;
52057;SDS011;38063;53.210;6.504;2023-10-31T06:07:55;1.73;;;0.93;;
52057;SDS011;38063;53.210;6.504;2023-10-31T06:10:21;2.33;;;1.02;;
52057;SDS011;38063;53.210;6.504;2023-10-31T06:12:47;3.33;;;1.20;;
52057;SDS011;38063;53.210;6.504;2023-10-31T06:15:12;1.48;;;0.90;;
52057;SDS011;38063;53.210;6.504;2023-10-31T06:17:38;2.95;;;1.10;;
52057;SDS011;38063;53.210;6.504;2023-10-31T06:20:06;3.33;;;1.27;;
52057;SDS011;38063;53.210;6.504;2023-10-31T06:22:32;3.05;;;1.45;;
52057;SDS011;38063;53.210;6.504;2023-10-31T06:24:58;4.45;;;1.58;;
52057;SDS011;38063;53.210;6.504;2023-10-31T06:27:24;3.70;;;1.70;;
52057;SDS011;38063;53.210;6.504;2023-10-31T06:29:50;4.85;;;1.58;;
52057;SDS011;38063;53.210;6.504;2023-10-31T06:32:15;7.90;;;1.92;;
52057;SDS011;38063;53.210;6.504;2023-10-31T06:34:41;4.28;;;1.80;;
52057;SDS011;38063;53.210;6.504;2023-10-31T06:37:07;4.32;;;1.73;;
52057;SDS011;38063;53.210;6.504;2023-10-31T06:39:32;3.67;;;1.98;;
52057;SDS011;38063;53.210;6.504;2023-10-31T06:41:58;6.32;;;2.20;;
52057;SDS011;38063;53.210;6.504;2023-10-31T06:44:23;5.88;;;2.33;;
52057;SDS011;38063;53.210;6.504;2023-10-31T06:46:49;5.57;;;2.45;;
52057;SDS011;38063;53.210;6.504;2023-10-31T06:49:15;5.50;;;2.25;;
52057;SDS011;38063;53.210;6.504;2023-10-31T06:51:41;6.15;;;2.15;;
52057;SDS011;38063;53.210;6.504;2023-10-31T06:54:06;4.03;;;2.35;;
52057;SDS011;38063;53.210;6.504;2023-10-31T06:56:32;3.60;;;2.38;;
52057;SDS011;38063;53.210;6.504;2023-10-31T06:58:58;5.82;;;2.33;;
52057;SDS011;38063;53.210;6.504;2023-10-31T07:01:24;11.35;;;2.90;;
52057;SDS011;38063;53.210;6.504;2023-10-31T07:03:50;7.20;;;2.50;;
52057;SDS011;38063;53.210;6.504;2023-10-31T07:06:15;6.60;;;2.92;;
52057;SDS011;38063;53.210;6.504;2023-10-31T07:08:41;5.72;;;2.45;;
52057;SDS011;38063;53.210;6.504;2023-10-31T07:11:07;5.80;;;2.67;;
52057;SDS011;38063;53.210;6.504;2023-10-31T07:13:32;5.47;;;2.70;;
52057;SDS011;38063;53.210;6.504;2023-10-31T07:15:58;7.65;;;2.28;;
52057;SDS011;38063;53.210;6.504;2023-10-31T07:18:23;7.03;;;2.45;;
52057;SDS011;38063;53.210;6.504;2023-10-31T07:20:49;5.45;;;2.08;;
52057;SDS011;38063;53.210;6.504;2023-10-31T07:23:15;5.85;;;2.47;;
52057;SDS011;38063;53.210;6.504;2023-10-31T07:25:41;5.50;;;2.75;;
52057;SDS011;38063;53.210;6.504;2023-10-31T07:28:06;5.68;;;2.60;;
52057;SDS011;38063;53.210;6.504;2023-10-31T07:30:32;8.18;;;2.67;;
52057;SDS011;38063;53.210;6.504;2023-10-31T07:32:57;4.93;;;2.00;;
52057;SDS011;38063;53.210;6.504;2023-10-31T07:35:23;5.60;;;2.40;;
52057;SDS011;38063;53.210;6.504;2023-10-31T07:37:49;7.13;;;2.38;;
52057;SDS011;38063;53.210;6.504;2023-10-31T07:40:14;4.68;;;2.40;;
52057;SDS011;38063;53.210;6.504;2023-10-31T07:42:40;10.93;;;2.85;;
52057;SDS011;38063;53.210;6.504;2023-10-31T07:45:06;4.85;;;2.22;;
52057;SDS011;38063;53.210;6.504;2023-10-31T07:47:32;6.82;;;2.08;;
52057;SDS011;38063;53.210;6.504;2023-10-31T07:49:58;6.18;;;1.88;;
52057;SDS011;38063;53.210;6.504;2023-10-31T07:52:24;5.82;;;1.92;;
52057;SDS011;38063;53.210;6.504;2023-10-31T07:54:49;5.30;;;1.77;;
52057;SDS011;38063;53.210;6.504;2023-10-31T07:57:17;5.00;;;1.70;;
52057;SDS011;38063;53.210;6.504;2023-10-31T07:59:42;4.93;;;1.52;;
52057;SDS011;38063;53.210;6.504;2023-10-31T08:02:08;6.22;;;1.48;;
52057;SDS011;38063;53.210;6.504;2023-10-31T08:04:34;11.05;;;1.52;;
52057;SDS011;38063;53.210;6.504;2023-10-31T08:06:59;5.90;;;1.23;;
52057;SDS011;38063;53.210;6.504;2023-10-31T08:09:25;3.58;;;1.30;;
52057;SDS011;38063;53.210;6.504;2023-10-31T08:11:51;4.53;;;1.13;;
52057;SDS011;38063;53.210;6.504;2023-10-31T08:14:16;5.80;;;1.08;;
52057;SDS011;38063;53.210;6.504;2023-10-31T08:16:42;2.70;;;0.85;;
52057;SDS011;38063;53.210;6.504;2023-10-31T08:19:08;7.25;;;1.20;;
52057;SDS011;38063;53.210;6.504;2023-10-31T08:21:33;5.15;;;1.05;;
52057;SDS011;38063;53.210;6.504;2023-10-31T08:24:03;4.78;;;1.00;;
52057;SDS011;38063;53.210;6.504;2023-10-31T08:26:30;3.67;;;1.05;;
52057;SDS011;38063;53.210;6.504;2023-10-31T08:28:56;6.88;;;1.23;;
52057;SDS011;38063;53.210;6.504;2023-10-31T08:31:22;3.78;;;1.05;;
52057;SDS011;38063;53.210;6.504;2023-10-31T08:33:48;7.55;;;0.93;;
52057;SDS011;38063;53.210;6.504;2023-10-31T08:36:14;4.00;;;1.00;;
52057;SDS011;38063;53.210;6.504;2023-10-31T08:38:39;9.63;;;1.20;;
52057;SDS011;38063;53.210;6.504;2023-10-31T08:41:05;7.13;;;1.10;;
52057;SDS011;38063;53.210;6.504;2023-10-31T08:43:31;11.38;;;1.35;;
52057;SDS011;38063;53.210;6.504;2023-10-31T08:45:57;21.30;;;10.95;;
52057;SDS011;38063;53.210;6.504;2023-10-31T08:48:22;32.10;;;15.75;;
52057;SDS011;38063;53.210;6.504;2023-10-31T08:50:48;17.98;;;8.45;;
52057;SDS011;38063;53.210;6.504;2023-10-31T08:53:14;17.35;;;5.65;;
52057;SDS011;38063;53.210;6.504;2023-10-31T08:55:40;12.65;;;4.15;;
52057;SDS011;38063;53.210;6.504;2023-10-31T08:58:10;12.95;;;1.35;;
52057;SDS011;38063;53.210;6.504;2023-10-31T09:00:38;10.30;;;1.77;;
52057;SDS011;38063;53.210;6.504;2023-10-31T09:03:06;12.95;;;1.35;;
52057;SDS011;38063;53.210;6.504;2023-10-31T09:05:32;7.68;;;1.20;;
52057;SDS011;38063;53.210;6.504;2023-10-31T09:07:57;4.47;;;1.25;;
52057;SDS011;38063;53.210;6.504;2023-10-31T09:10:23;4.82;;;0.90;;
52057;SDS011;38063;53.210;6.504;2023-10-31T09:12:49;5.38;;;0.90;;
52057;SDS011;38063;53.210;6.504;2023-10-31T09:15:14;2.50;;;0.60;;
52057;SDS011;38063;53.210;6.504;2023-10-31T09:17:40;8.85;;;0.98;;
52057;SDS011;38063;53.210;6.504;2023-10-31T09:20:06;4.88;;;0.80;;
52057;SDS011;38063;53.210;6.504;2023-10-31T09:22:33;4.57;;;0.80;;
52057;SDS011;38063;53.210;6.504;2023-10-31T09:24:59;3.75;;;1.13;;
52057;SDS011;38063;53.210;6.504;2023-10-31T09:27:24;6.35;;;0.70;;
52057;SDS011;38063;53.210;6.504;2023-10-31T09:29:50;3.42;;;0.70;;
52057;SDS011;38063;53.210;6.504;2023-10-31T09:32:16;5.03;;;0.60;;
52057;SDS011;38063;53.210;6.504;2023-10-31T09:34:43;3.78;;;0.90;;
52057;SDS011;38063;53.210;6.504;2023-10-31T09:37:09;6.53;;;1.08;;
52057;SDS011;38063;53.210;6.504;2023-10-31T09:39:34;7.32;;;0.70;;
52057;SDS011;38063;53.210;6.504;2023-10-31T09:42:00;2.58;;;0.70;;
52057;SDS011;38063;53.210;6.504;2023-10-31T09:44:26;2.60;;;0.77;;
52057;SDS011;38063;53.210;6.504;2023-10-31T09:46:51;6.13;;;1.80;;
52057;SDS011;38063;53.210;6.504;2023-10-31T09:49:18;7.40;;;0.98;;
52057;SDS011;38063;53.210;6.504;2023-10-31T09:51:43;3.38;;;0.60;;
52057;SDS011;38063;53.210;6.504;2023-10-31T09:54:11;4.25;;;0.63;;
52057;SDS011;38063;53.210;6.504;2023-10-31T09:56:41;3.53;;;0.68;;
52057;SDS011;38063;53.210;6.504;2023-10-31T09:59:07;3.15;;;0.70;;
52057;SDS011;38063;53.210;6.504;2023-10-31T10:01:32;6.03;;;0.57;;
52057;SDS011;38063;53.210;6.504;2023-10-31T10:03:58;5.10;;;0.70;;
52057;SDS011;38063;53.210;6.504;2023-10-31T10:06:25;4.10;;;0.88;;
52057;SDS011;38063;53.210;6.504;2023-10-31T10:08:51;3.20;;;0.95;;
52057;SDS011;38063;53.210;6.504;2023-10-31T10:11:17;3.25;;;0.57;;
52057;SDS011;38063;53.210;6.504;2023-10-31T10:13:43;3.40;;;0.90;;
52057;SDS011;38063;53.210;6.504;2023-10-31T10:16:09;3.20;;;0.60;;
52057;SDS011;38063;53.210;6.504;2023-10-31T10:18:35;4.13;;;0.70;;
52057;SDS011;38063;53.210;6.504;2023-10-31T10:21:05;3.97;;;0.50;;
52057;SDS011;38063;53.210;6.504;2023-10-31T10:23:32;7.07;;;0.90;;
52057;SDS011;38063;53.210;6.504;2023-10-31T10:25:59;4.80;;;1.33;;
52057;SDS011;38063;53.210;6.504;2023-10-31T10:28:26;6.30;;;0.90;;
52057;SDS011;38063;53.210;6.504;2023-10-31T10:30:55;4.07;;;0.80;;
52057;SDS011;38063;53.210;6.504;2023-10-31T10:33:21;4.47;;;0.70;;
52057;SDS011;38063;53.210;6.504;2023-10-31T10:35:47;5.10;;;0.90;;
52057;SDS011;38063;53.210;6.504;2023-10-31T10:38:14;1.73;;;0.60;;
52057;SDS011;38063;53.210;6.504;2023-10-31T10:40:44;2.78;;;0.50;;
52057;SDS011;38063;53.210;6.504;2023-10-31T10:43:32;10.07;;;0.70;;
52057;SDS011;38063;53.210;6.504;2023-10-31T10:45:59;3.75;;;0.55;;
52057;SDS011;38063;53.210;6.504;2023-10-31T10:48:25;2.85;;;0.68;;
52057;SDS011;38063;53.210;6.504;2023-10-31T10:50:59;2.30;;;0.60;;
52057;SDS011;38063;53.210;6.504;2023-10-31T10:53:42;1.52;;;0.50;;
52057;SDS011;38063;53.210;6.504;2023-10-31T10:56:19;4.32;;;0.70;;
52057;SDS011;38063;53.210;6.504;2023-10-31T10:58:51;6.25;;;0.70;;
52057;SDS011;38063;53.210;6.504;2023-10-31T11:01:24;3.30;;;0.68;;
52057;SDS011;38063;53.210;6.504;2023-10-31T11:03:52;8.52;;;1.13;;
52057;SDS011;38063;53.210;6.504;2023-10-31T11:06:20;5.28;;;0.77;;
52057;SDS011;38063;53.210;6.504;2023-10-31T11:08:46;6.13;;;0.95;;
52057;SDS011;38063;53.210;6.504;2023-10-31T11:11:12;2.38;;;0.45;;
52057;SDS011;38063;53.210;6.504;2023-10-31T11:13:41;4.57;;;0.40;;
52057;SDS011;38063;53.210;6.504;2023-10-31T11:16:13;2.83;;;0.70;;
52057;SDS011;38063;53.210;6.504;2023-10-31T11:18:45;1.98;;;0.70;;
52057;SDS011;38063;53.210;6.504;2023-10-31T11:21:11;6.93;;;0.80;;
52057;SDS011;38063;53.210;6.504;2023-10-31T11:23:37;4.60;;;0.85;;
52057;SDS011;38063;53.210;6.504;2023-10-31T11:26:06;2.03;;;1.13;;
52057;SDS011;38063;53.210;6.504;2023-10-31T11:28:33;4.90;;;0.82;;
52057;SDS011;38063;53.210;6.504;2023-10-31T11:31:00;4.88;;;1.08;;
52057;SDS011;38063;53.210;6.504;2023-10-31T11:33:28;6.18;;;1.05;;
52057;SDS011;38063;53.210;6.504;2023-10-31T11:36:01;10.27;;;1.10;;
52057;SDS011;38063;53.210;6.504;2023-10-31T11:38:30;3.08;;;0.90;;
52057;SDS011;38063;53.210;6.504;2023-10-31T11:40:59;5.07;;;0.85;;
52057;SDS011;38063;53.210;6.504;2023-10-31T11:43:34;5.63;;;0.80;;
52057;SDS011;38063;53.210;6.504;2023-10-31T11:46:17;4.65;;;0.80;;
52057;SDS011;38063;53.210;6.504;2023-10-31T11:48:49;11.82;;;1.10;;
52057;SDS011;38063;53.210;6.504;2023-10-31T11:51:16;4.53;;;1.05;;
52057;SDS011;38063;53.210;6.504;2023-10-31T11:53:43;6.78;;;1.30;;
52057;SDS011;38063;53.210;6.504;2023-10-31T11:56:09;9.90;;;1.38;;
52057;SDS011;38063;53.210;6.504;2023-10-31T11:58:36;6.65;;;1.10;;
52057;SDS011;38063;53.210;6.504;2023-10-31T12:01:03;6.47;;;0.98;;
52057;SDS011;38063;53.210;6.504;2023-10-31T12:03:40;7.80;;;1.25;;
52057;SDS011;38063;53.210;6.504;2023-10-31T12:06:07;4.38;;;0.95;;
52057;SDS011;38063;53.210;6.504;2023-10-31T12:08:37;4.88;;;1.30;;
52057;SDS011;38063;53.210;6.504;2023-10-31T12:11:08;5.53;;;0.90;;
52057;SDS011;38063;53.210;6.504;2023-10-31T12:13:35;4.30;;;0.90;;
52057;SDS011;38063;53.210;6.504;2023-10-31T12:16:02;6.95;;;1.10;;
52057;SDS011;38063;53.210;6.504;2023-10-31T12:18:28;5.88;;;0.98;;
52057;SDS011;38063;53.210;6.504;2023-10-31T12:20:54;8.02;;;1.30;;
52057;SDS011;38063;53.210;6.504;2023-10-31T12:23:20;8.07;;;0.95;;
52057;SDS011;38063;53.210;6.504;2023-10-31T12:25:52;5.47;;;1.17;;
52057;SDS011;38063;53.210;6.504;2023-10-31T12:28:22;8.98;;;0.98;;
52057;SDS011;38063;53.210;6.504;2023-10-31T12:30:49;11.63;;;1.85;;
52057;SDS011;38063;53.210;6.504;2023-10-31T12:33:19;7.05;;;1.05;;
52057;SDS011;38063;53.210;6.504;2023-10-31T12:35:47;8.00;;;1.45;;
52057;SDS011;38063;53.210;6.504;2023-10-31T12:38:14;4.63;;;0.85;;
52057;SDS011;38063;53.210;6.504;2023-10-31T12:40:40;5.35;;;1.10;;
52057;SDS011;38063;53.210;6.504;2023-10-31T12:43:08;4.97;;;1.10;;
52057;SDS011;38063;53.210;6.504;2023-10-31T12:45:35;5.90;;;0.80;;
52057;SDS011;38063;53.210;6.504;2023-10-31T12:48:04;8.43;;;0.80;;
52057;SDS011;38063;53.210;6.504;2023-10-31T12:50:34;4.22;;;1.15;;
52057;SDS011;38063;53.210;6.504;2023-10-31T12:53:02;5.40;;;1.15;;
52057;SDS011;38063;53.210;6.504;2023-10-31T12:55:29;5.47;;;1.05;;
52057;SDS011;38063;53.210;6.504;2023-10-31T12:57:56;5.53;;;0.90;;
52057;SDS011;38063;53.210;6.504;2023-10-31T13:00:29;6.25;;;1.00;;
52057;SDS011;38063;53.210;6.504;2023-10-31T13:02:59;7.20;;;1.00;;
52057;SDS011;38063;53.210;6.504;2023-10-31T13:05:27;6.22;;;0.90;;
52057;SDS011;38063;53.210;6.504;2023-10-31T13:07:54;6.93;;;0.82;;
52057;SDS011;38063;53.210;6.504;2023-10-31T13:10:21;2.60;;;0.88;;
52057;SDS011;38063;53.210;6.504;2023-10-31T13:12:48;4.93;;;0.80;;
52057;SDS011;38063;53.210;6.504;2023-10-31T13:15:24;7.03;;;0.98;;
52057;SDS011;38063;53.210;6.504;2023-10-31T13:17:50;7.85;;;1.40;;
52057;SDS011;38063;53.210;6.504;2023-10-31T13:20:18;4.50;;;0.93;;
52057;SDS011;38063;53.210;6.504;2023-10-31T13:22:44;5.30;;;1.50;;
52057;SDS011;38063;53.210;6.504;2023-10-31T13:25:11;7.10;;;1.00;;
52057;SDS011;38063;53.210;6.504;2023-10-31T13:27:39;7.03;;;0.95;;
52057;SDS011;38063;53.210;6.504;2023-10-31T13:30:07;7.75;;;1.20;;
52057;SDS011;38063;53.210;6.504;2023-10-31T13:32:33;6.82;;;1.45;;
52057;SDS011;38063;53.210;6.504;2023-10-31T13:35:00;4.88;;;1.05;;
52057;SDS011;38063;53.210;6.504;2023-10-31T13:37:26;6.63;;;0.80;;
52057;SDS011;38063;53.210;6.504;2023-10-31T13:39:51;5.32;;;1.05;;
52057;SDS011;38063;53.210;6.504;2023-10-31T13:42:17;3.42;;;0.70;;
52057;SDS011;38063;53.210;6.504;2023-10-31T13:44:43;3.25;;;0.75;;
52057;SDS011;38063;53.210;6.504;2023-10-31T13:47:09;4.88;;;1.05;;
52057;SDS011;38063;53.210;6.504;2023-10-31T13:49:36;8.10;;;1.23;;
52057;SDS011;38063;53.210;6.504;2023-10-31T13:52:04;8.82;;;1.30;;
52057;SDS011;38063;53.210;6.504;2023-10-31T13:54:31;5.30;;;0.90;;
52057;SDS011;38063;53.210;6.504;2023-10-31T13:57:00;6.45;;;0.80;;
52057;SDS011;38063;53.210;6.504;2023-10-31T13:59:25;4.00;;;0.90;;
52057;SDS011;38063;53.210;6.504;2023-10-31T14:01:51;4.45;;;1.00;;
52057;SDS011;38063;53.210;6.504;2023-10-31T14:04:17;7.13;;;0.80;;
52057;SDS011;38063;53.210;6.504;2023-10-31T14:06:43;3.75;;;0.70;;
52057;SDS011;38063;53.210;6.504;2023-10-31T14:09:10;5.43;;;0.90;;
52057;SDS011;38063;53.210;6.504;2023-10-31T14:11:37;6.13;;;0.77;;
52057;SDS011;38063;53.210;6.504;2023-10-31T14:14:03;5.07;;;1.13;;
52057;SDS011;38063;53.210;6.504;2023-10-31T14:16:35;6.70;;;0.95;;
52057;SDS011;38063;53.210;6.504;2023-10-31T14:19:09;5.00;;;0.98;;
52057;SDS011;38063;53.210;6.504;2023-10-31T14:21:35;7.07;;;1.20;;
52057;SDS011;38063;53.210;6.504;2023-10-31T14:24:02;1.45;;;0.73;;
52057;SDS011;38063;53.210;6.504;2023-10-31T14:26:28;3.42;;;1.05;;
52057;SDS011;38063;53.210;6.504;2023-10-31T14:28:54;6.32;;;1.80;;
52057;SDS011;38063;53.210;6.504;2023-10-31T14:31:20;8.50;;;2.10;;
52057;SDS011;38063;53.210;6.504;2023-10-31T14:33:46;5.80;;;1.10;;
52057;SDS011;38063;53.210;6.504;2023-10-31T14:36:12;3.58;;;0.57;;
52057;SDS011;38063;53.210;6.504;2023-10-31T14:38:38;3.90;;;0.85;;
52057;SDS011;38063;53.210;6.504;2023-10-31T14:41:04;4.35;;;1.00;;